sensor_id;sensor_type;location;lat;lon;timestamp;pressure;altitude;pressure_sealevel;temperature;humidity
54924;BME280;40825;52.270;20.984;2023-12-20T00:01:01;99715.33;;;5.19;100.00
54924;BME280;40825;52.270;20.984;2023-12-20T00:03:39;99714.73;;;5.18;100.00
54924;BME280;40825;52.270;20.984;2023-12-20T00:06:05;99708.81;;;5.17;100.00
54924;BME280;40825;52.270;20.984;2023-12-20T00:08:30;99709.25;;;5.17;100.00
54924;BME280;40825;52.270;20.984;2023-12-20T00:10:56;99705.30;;;5.17;100.00
54924;BME280;40825;52.270;20.984;2023-12-20T00:13:21;99701.17;;;5.18;100.00
54924;BME280;40825;52.270;20.984;2023-12-20T00:15:47;99695.04;;;5.18;100.00
54924;BME280;40825;52.270;20.984;2023-12-20T00:18:12;99698.84;;;5.18;100.00
54924;BME280;40825;52.270;20.984;2023-12-20T00:20:38;99700.88;;;5.17;100.00
54924;BME280;40825;52.270;20.984;2023-12-20T00:23:03;99698.20;;;5.18;100.00
54924;BME280;40825;52.270;20.984;2023-12-20T00:25:29;99700.23;;;5.18;100.00
54924;BME280;40825;52.270;20.984;2023-12-20T00:27:54;99698.43;;;5.19;100.00
54924;BME280;40825;52.270;20.984;2023-12-20T00:30:20;99697.89;;;5.19;100.00
54924;BME280;40825;52.270;20.984;2023-12-20T00:32:45;99695.15;;;5.18;100.00
54924;BME280;40825;52.270;20.984;2023-12-20T00:35:14;99691.50;;;5.18;100.00
54924;BME280;40825;52.270;20.984;2023-12-20T00:37:40;99687.26;;;5.18;100.00
54924;BME280;40825;52.270;20.984;2023-12-20T00:40:07;99684.11;;;5.17;100.00
54924;BME280;40825;52.270;20.984;2023-12-20T00:42:33;99687.73;;;5.18;100.00
54924;BME280;40825;52.270;20.984;2023-12-20T00:44:59;99686.98;;;5.19;100.00
54924;BME280;40825;52.270;20.984;2023-12-20T00:47:25;99683.61;;;5.19;100.00
54924;BME280;40825;52.270;20.984;2023-12-20T00:49:51;99677.98;;;5.19;100.00
54924;BME280;40825;52.270;20.984;2023-12-20T00:52:18;99676.27;;;5.18;100.00
54924;BME280;40825;52.270;20.984;2023-12-20T00:54:45;99678.33;;;5.19;100.00
54924;BME280;40825;52.270;20.984;2023-12-20T00:57:11;99676.36;;;5.19;100.00
54924;BME280;40825;52.270;20.984;2023-12-20T00:59:36;99669.95;;;5.19;100.00
54924;BME280;40825;52.270;20.984;2023-12-20T01:02:02;99667.17;;;5.19;100.00
54924;BME280;40825;52.270;20.984;2023-12-20T01:04:27;99666.15;;;5.19;100.00
54924;BME280;40825;52.270;20.984;2023-12-20T01:06:53;99667.16;;;5.19;100.00
54924;BME280;40825;52.270;20.984;2023-12-20T01:09:19;99663.17;;;5.20;100.00
54924;BME280;40825;52.270;20.984;2023-12-20T01:11:44;99671.52;;;5.21;100.00
54924;BME280;40825;52.270;20.984;2023-12-20T01:14:12;99668.45;;;5.22;100.00
54924;BME280;40825;52.270;20.984;2023-12-20T01:16:37;99661.20;;;5.22;100.00
54924;BME280;40825;52.270;20.984;2023-12-20T01:19:03;99658.77;;;5.23;100.00
54924;BME280;40825;52.270;20.984;2023-12-20T01:21:29;99661.92;;;5.23;100.00
54924;BME280;40825;52.270;20.984;2023-12-20T01:23:54;99662.64;;;5.25;100.00
54924;BME280;40825;52.270;20.984;2023-12-20T01:26:20;99661.97;;;5.26;100.00
54924;BME280;40825;52.270;20.984;2023-12-20T01:28:45;99652.67;;;5.28;100.00
54924;BME280;40825;52.270;20.984;2023-12-20T01:31:11;99651.17;;;5.27;100.00
54924;BME280;40825;52.270;20.984;2023-12-20T01:33:36;99651.27;;;5.26;100.00
54924;BME280;40825;52.270;20.984;2023-12-20T01:36:03;99648.75;;;5.25;100.00
54924;BME280;40825;52.270;20.984;2023-12-20T01:38:28;99643.72;;;5.24;100.00
54924;BME280;40825;52.270;20.984;2023-12-20T01:40:54;99638.56;;;5.24;100.00
54924;BME280;40825;52.270;20.984;2023-12-20T01:43:20;99639.92;;;5.25;100.00
54924;BME280;40825;52.270;20.984;2023-12-20T01:45:47;99643.15;;;5.26;100.00
54924;BME280;40825;52.270;20.984;2023-12-20T01:48:13;99643.17;;;5.27;100.00
54924;BME280;40825;52.270;20.984;2023-12-20T01:50:40;99645.43;;;5.28;100.00
54924;BME280;40825;52.270;20.984;2023-12-20T01:53:07;99641.56;;;5.28;100.00
54924;BME280;40825;52.270;20.984;2023-12-20T01:55:38;99636.46;;;5.28;100.00
54924;BME280;40825;52.270;20.984;2023-12-20T01:58:05;99633.06;;;5.28;100.00
54924;BME280;40825;52.270;20.984;2023-12-20T02:00:31;99629.85;;;5.28;100.00
54924;BME280;40825;52.270;20.984;2023-12-20T02:03:01;99630.73;;;5.28;100.00
54924;BME280;40825;52.270;20.984;2023-12-20T02:05:29;99629.88;;;5.28;100.00
54924;BME280;40825;52.270;20.984;2023-12-20T02:07:55;99631.27;;;5.28;100.00
54924;BME280;40825;52.270;20.984;2023-12-20T02:10:20;99628.30;;;5.28;100.00
54924;BME280;40825;52.270;20.984;2023-12-20T02:12:46;99628.86;;;5.28;100.00
54924;BME280;40825;52.270;20.984;2023-12-20T02:15:12;99622.64;;;5.28;100.00
54924;BME280;40825;52.270;20.984;2023-12-20T02:17:38;99622.16;;;5.29;100.00
54924;BME280;40825;52.270;20.984;2023-12-20T02:20:05;99618.59;;;5.30;100.00
54924;BME280;40825;52.270;20.984;2023-12-20T02:22:31;99612.11;;;5.29;100.00
54924;BME280;40825;52.270;20.984;2023-12-20T02:24:57;99615.81;;;5.29;100.00
54924;BME280;40825;52.270;20.984;2023-12-20T02:27:23;99617.93;;;5.29;100.00
54924;BME280;40825;52.270;20.984;2023-12-20T02:29:49;99612.52;;;5.29;100.00
54924;BME280;40825;52.270;20.984;2023-12-20T02:32:16;99608.52;;;5.28;100.00
54924;BME280;40825;52.270;20.984;2023-12-20T02:34:42;99605.46;;;5.29;100.00
54924;BME280;40825;52.270;20.984;2023-12-20T02:37:07;99593.55;;;5.29;100.00
54924;BME280;40825;52.270;20.984;2023-12-20T02:39:33;99590.85;;;5.29;100.00
54924;BME280;40825;52.270;20.984;2023-12-20T02:41:58;99595.94;;;5.29;100.00
54924;BME280;40825;52.270;20.984;2023-12-20T02:44:24;99589.27;;;5.30;100.00
54924;BME280;40825;52.270;20.984;2023-12-20T02:46:50;99585.33;;;5.30;100.00
54924;BME280;40825;52.270;20.984;2023-12-20T02:49:15;99592.84;;;5.31;100.00
54924;BME280;40825;52.270;20.984;2023-12-20T02:51:41;99594.31;;;5.32;100.00
54924;BME280;40825;52.270;20.984;2023-12-20T02:54:07;99591.65;;;5.30;100.00
54924;BME280;40825;52.270;20.984;2023-12-20T02:56:33;99589.91;;;5.29;100.00
54924;BME280;40825;52.270;20.984;2023-12-20T02:58:58;99587.08;;;5.27;100.00
54924;BME280;40825;52.270;20.984;2023-12-20T03:01:24;99586.05;;;5.27;100.00
54924;BME280;40825;52.270;20.984;2023-12-20T03:03:50;99587.88;;;5.26;100.00
54924;BME280;40825;52.270;20.984;2023-12-20T03:06:20;99582.84;;;5.27;100.00
54924;BME280;40825;52.270;20.984;2023-12-20T03:08:46;99580.39;;;5.27;100.00
54924;BME280;40825;52.270;20.984;2023-12-20T03:11:11;99575.23;;;5.27;100.00
54924;BME280;40825;52.270;20.984;2023-12-20T03:13:37;99576.27;;;5.28;100.00
54924;BME280;40825;52.270;20.984;2023-12-20T03:16:13;99576.98;;;5.28;100.00
54924;BME280;40825;52.270;20.984;2023-12-20T03:18:39;99575.07;;;5.28;100.00
54924;BME280;40825;52.270;20.984;2023-12-20T03:21:05;99562.20;;;5.27;100.00
54924;BME280;40825;52.270;20.984;2023-12-20T03:23:31;99566.80;;;5.27;100.00
54924;BME280;40825;52.270;20.984;2023-12-20T03:25:58;99584.77;;;5.28;100.00
54924;BME280;40825;52.270;20.984;2023-12-20T03:28:24;99586.67;;;5.28;100.00
54924;BME280;40825;52.270;20.984;2023-12-20T03:30:49;99584.40;;;5.28;100.00
54924;BME280;40825;52.270;20.984;2023-12-20T03:33:15;99585.79;;;5.28;100.00
54924;BME280;40825;52.270;20.984;2023-12-20T03:35:41;99574.64;;;5.28;100.00
54924;BME280;40825;52.270;20.984;2023-12-20T03:38:07;99568.38;;;5.29;100.00
54924;BME280;40825;52.270;20.984;2023-12-20T03:40:33;99571.20;;;5.29;100.00
54924;BME280;40825;52.270;20.984;2023-12-20T03:42:58;99566.11;;;5.30;100.00
54924;BME280;40825;52.270;20.984;2023-12-20T03:45:24;99559.27;;;5.30;100.00
54924;BME280;40825;52.270;20.984;2023-12-20T03:47:50;99563.94;;;5.29;100.00
54924;BME280;40825;52.270;20.984;2023-12-20T03:50:21;99564.05;;;5.28;100.00
54924;BME280;40825;52.270;20.984;2023-12-20T03:52:47;99565.70;;;5.29;100.00
54924;BME280;40825;52.270;20.984;2023-12-20T03:55:13;99565.09;;;5.30;100.00
54924;BME280;40825;52.270;20.984;2023-12-20T03:57:38;99570.48;;;5.30;100.00
54924;BME280;40825;52.270;20.984;2023-12-20T04:00:06;99564.42;;;5.29;100.00
54924;BME280;40825;52.270;20.984;2023-12-20T04:02:36;99560.95;;;5.30;100.00
54924;BME280;40825;52.270;20.984;2023-12-20T04:05:02;99556.71;;;5.30;100.00
54924;BME280;40825;52.270;20.984;2023-12-20T04:07:28;99555.59;;;5.31;100.00
54924;BME280;40825;52.270;20.984;2023-12-20T04:09:53;99559.42;;;5.31;100.00
54924;BME280;40825;52.270;20.984;2023-12-20T04:12:19;99564.42;;;5.32;100.00
54924;BME280;40825;52.270;20.984;2023-12-20T04:14:45;99557.75;;;5.34;100.00
54924;BME280;40825;52.270;20.984;2023-12-20T04:17:20;99557.51;;;5.34;100.00
54924;BME280;40825;52.270;20.984;2023-12-20T04:19:48;99560.02;;;5.35;100.00
54924;BME280;40825;52.270;20.984;2023-12-20T04:22:14;99567.52;;;5.36;100.00
54924;BME280;40825;52.270;20.984;2023-12-20T04:24:40;99566.67;;;5.36;100.00
54924;BME280;40825;52.270;20.984;2023-12-20T04:27:08;99564.12;;;5.35;100.00
54924;BME280;40825;52.270;20.984;2023-12-20T04:29:34;99559.50;;;5.34;100.00
54924;BME280;40825;52.270;20.984;2023-12-20T04:32:00;99564.27;;;5.34;100.00
54924;BME280;40825;52.270;20.984;2023-12-20T04:34:28;99563.40;;;5.34;100.00
54924;BME280;40825;52.270;20.984;2023-12-20T04:36:53;99559.81;;;5.33;100.00
54924;BME280;40825;52.270;20.984;2023-12-20T04:39:19;99553.48;;;5.31;100.00
54924;BME280;40825;52.270;20.984;2023-12-20T04:41:45;99559.39;;;5.32;100.00
54924;BME280;40825;52.270;20.984;2023-12-20T04:44:13;99564.45;;;5.32;100.00
54924;BME280;40825;52.270;20.984;2023-12-20T04:46:39;99565.94;;;5.32;100.00
54924;BME280;40825;52.270;20.984;2023-12-20T04:49:05;99567.92;;;5.31;100.00
54924;BME280;40825;52.270;20.984;2023-12-20T04:51:34;99564.70;;;5.30;100.00
54924;BME280;40825;52.270;20.984;2023-12-20T04:54:03;99565.39;;;5.30;100.00
54924;BME280;40825;52.270;20.984;2023-12-20T04:56:28;99564.23;;;5.30;100.00
54924;BME280;40825;52.270;20.984;2023-12-20T04:58:54;99568.02;;;5.29;100.00
54924;BME280;40825;52.270;20.984;2023-12-20T05:01:20;99562.63;;;5.28;100.00
54924;BME280;40825;52.270;20.984;2023-12-20T05:03:46;99561.23;;;5.28;100.00
54924;BME280;40825;52.270;20.984;2023-12-20T05:06:12;99559.55;;;5.27;100.00
54924;BME280;40825;52.270;20.984;2023-12-20T05:08:38;99552.05;;;5.27;100.00
54924;BME280;40825;52.270;20.984;2023-12-20T05:11:04;99548.48;;;5.25;100.00
54924;BME280;40825;52.270;20.984;2023-12-20T05:13:30;99555.49;;;5.26;100.00
54924;BME280;40825;52.270;20.984;2023-12-20T05:15:55;99554.02;;;5.26;100.00
54924;BME280;40825;52.270;20.984;2023-12-20T05:18:21;99546.95;;;5.26;100.00
54924;BME280;40825;52.270;20.984;2023-12-20T05:20:49;99541.63;;;5.27;100.00
54924;BME280;40825;52.270;20.984;2023-12-20T05:23:15;99538.29;;;5.27;100.00
54924;BME280;40825;52.270;20.984;2023-12-20T05:25:40;99543.33;;;5.26;100.00
54924;BME280;40825;52.270;20.984;2023-12-20T05:28:06;99544.29;;;5.25;100.00
54924;BME280;40825;52.270;20.984;2023-12-20T05:30:32;99541.60;;;5.25;100.00
54924;BME280;40825;52.270;20.984;2023-12-20T05:32:57;99539.98;;;5.26;100.00
54924;BME280;40825;52.270;20.984;2023-12-20T05:35:23;99537.38;;;5.24;100.00
54924;BME280;40825;52.270;20.984;2023-12-20T05:37:49;99536.86;;;5.23;100.00
54924;BME280;40825;52.270;20.984;2023-12-20T05:40:15;99532.73;;;5.22;100.00
54924;BME280;40825;52.270;20.984;2023-12-20T05:42:40;99530.73;;;5.23;100.00
54924;BME280;40825;52.270;20.984;2023-12-20T05:45:06;99534.61;;;5.23;100.00
54924;BME280;40825;52.270;20.984;2023-12-20T05:47:32;99533.33;;;5.22;100.00
54924;BME280;40825;52.270;20.984;2023-12-20T05:49:58;99534.51;;;5.22;100.00
54924;BME280;40825;52.270;20.984;2023-12-20T05:52:24;99531.58;;;5.22;100.00
54924;BME280;40825;52.270;20.984;2023-12-20T05:54:52;99529.02;;;5.22;100.00
54924;BME280;40825;52.270;20.984;2023-12-20T05:57:18;99526.94;;;5.22;100.00
54924;BME280;40825;52.270;20.984;2023-12-20T05:59:43;99528.03;;;5.22;100.00
54924;BME280;40825;52.270;20.984;2023-12-20T06:02:09;99526.32;;;5.21;100.00
54924;BME280;40825;52.270;20.984;2023-12-20T06:04:34;99526.23;;;5.21;100.00
54924;BME280;40825;52.270;20.984;2023-12-20T06:07:00;99529.09;;;5.22;100.00
54924;BME280;40825;52.270;20.984;2023-12-20T06:09:28;99530.46;;;5.21;100.00
54924;BME280;40825;52.270;20.984;2023-12-20T06:11:54;99532.56;;;5.19;100.00
54924;BME280;40825;52.270;20.984;2023-12-20T06:14:23;99533.05;;;5.20;100.00
54924;BME280;40825;52.270;20.984;2023-12-20T06:16:48;99534.85;;;5.19;100.00
54924;BME280;40825;52.270;20.984;2023-12-20T06:19:16;99533.26;;;5.19;100.00
54924;BME280;40825;52.270;20.984;2023-12-20T06:21:42;99533.73;;;5.20;100.00
54924;BME280;40825;52.270;20.984;2023-12-20T06:24:08;99531.27;;;5.20;100.00
54924;BME280;40825;52.270;20.984;2023-12-20T06:26:33;99532.16;;;5.20;100.00
54924;BME280;40825;52.270;20.984;2023-12-20T06:28:59;99538.95;;;5.19;100.00
54924;BME280;40825;52.270;20.984;2023-12-20T06:31:24;99541.98;;;5.18;100.00
54924;BME280;40825;52.270;20.984;2023-12-20T06:33:50;99535.69;;;5.17;100.00
54924;BME280;40825;52.270;20.984;2023-12-20T06:36:23;99535.88;;;5.16;100.00
54924;BME280;40825;52.270;20.984;2023-12-20T06:38:50;99543.36;;;5.16;100.00
54924;BME280;40825;52.270;20.984;2023-12-20T06:41:16;99537.23;;;5.14;100.00
54924;BME280;40825;52.270;20.984;2023-12-20T06:43:44;99533.40;;;5.12;100.00
54924;BME280;40825;52.270;20.984;2023-12-20T06:46:10;99534.34;;;5.12;100.00
54924;BME280;40825;52.270;20.984;2023-12-20T06:48:36;99540.98;;;5.12;100.00
54924;BME280;40825;52.270;20.984;2023-12-20T06:51:05;99541.95;;;5.11;100.00
54924;BME280;40825;52.270;20.984;2023-12-20T06:53:31;99540.79;;;5.11;100.00
54924;BME280;40825;52.270;20.984;2023-12-20T06:55:57;99538.44;;;5.09;100.00
54924;BME280;40825;52.270;20.984;2023-12-20T06:58:23;99539.27;;;5.10;100.00
54924;BME280;40825;52.270;20.984;2023-12-20T07:00:49;99537.63;;;5.11;100.00
54924;BME280;40825;52.270;20.984;2023-12-20T07:03:15;99538.94;;;5.12;100.00
54924;BME280;40825;52.270;20.984;2023-12-20T07:05:41;99534.47;;;5.12;100.00
54924;BME280;40825;52.270;20.984;2023-12-20T07:08:07;99535.85;;;5.12;100.00
54924;BME280;40825;52.270;20.984;2023-12-20T07:10:38;99535.90;;;5.12;100.00
54924;BME280;40825;52.270;20.984;2023-12-20T07:13:07;99532.28;;;5.13;100.00
54924;BME280;40825;52.270;20.984;2023-12-20T07:15:33;99530.09;;;5.13;100.00
54924;BME280;40825;52.270;20.984;2023-12-20T07:17:58;99537.14;;;5.15;100.00
54924;BME280;40825;52.270;20.984;2023-12-20T07:20:26;99540.36;;;5.16;100.00
54924;BME280;40825;52.270;20.984;2023-12-20T07:22:51;99544.75;;;5.16;100.00
54924;BME280;40825;52.270;20.984;2023-12-20T07:25:17;99548.29;;;5.16;100.00
54924;BME280;40825;52.270;20.984;2023-12-20T07:27:43;99550.39;;;5.18;100.00
54924;BME280;40825;52.270;20.984;2023-12-20T07:30:09;99544.84;;;5.18;100.00
54924;BME280;40825;52.270;20.984;2023-12-20T07:32:34;99543.58;;;5.19;100.00
54924;BME280;40825;52.270;20.984;2023-12-20T07:35:01;99543.56;;;5.20;100.00
54924;BME280;40825;52.270;20.984;2023-12-20T07:37:28;99540.48;;;5.21;100.00
54924;BME280;40825;52.270;20.984;2023-12-20T07:39:54;99542.89;;;5.22;100.00
54924;BME280;40825;52.270;20.984;2023-12-20T07:42:19;99545.70;;;5.22;100.00
54924;BME280;40825;52.270;20.984;2023-12-20T07:44:47;99544.33;;;5.23;100.00
54924;BME280;40825;52.270;20.984;2023-12-20T07:47:13;99540.34;;;5.22;100.00
54924;BME280;40825;52.270;20.984;2023-12-20T07:49:42;99542.75;;;5.23;100.00
54924;BME280;40825;52.270;20.984;2023-12-20T07:52:07;99543.77;;;5.23;100.00
54924;BME280;40825;52.270;20.984;2023-12-20T07:54:33;99542.18;;;5.23;100.00
54924;BME280;40825;52.270;20.984;2023-12-20T07:56:59;99539.80;;;5.24;100.00
54924;BME280;40825;52.270;20.984;2023-12-20T07:59:24;99538.65;;;5.26;100.00
54924;BME280;40825;52.270;20.984;2023-12-20T08:01:50;99537.13;;;5.28;100.00
54924;BME280;40825;52.270;20.984;2023-12-20T08:04:15;99533.65;;;5.27;100.00
54924;BME280;40825;52.270;20.984;2023-12-20T08:06:41;99534.48;;;5.28;100.00
54924;BME280;40825;52.270;20.984;2023-12-20T08:09:06;99537.45;;;5.28;100.00
54924;BME280;40825;52.270;20.984;2023-12-20T08:11:35;99541.49;;;5.28;100.00
54924;BME280;40825;52.270;20.984;2023-12-20T08:14:01;99540.10;;;5.28;100.00
54924;BME280;40825;52.270;20.984;2023-12-20T08:16:26;99537.95;;;5.28;100.00
54924;BME280;40825;52.270;20.984;2023-12-20T08:18:52;99536.96;;;5.28;100.00
54924;BME280;40825;52.270;20.984;2023-12-20T08:21:18;99535.70;;;5.26;100.00
54924;BME280;40825;52.270;20.984;2023-12-20T08:23:46;99535.05;;;5.26;100.00
54924;BME280;40825;52.270;20.984;2023-12-20T08:26:12;99530.45;;;5.26;100.00
54924;BME280;40825;52.270;20.984;2023-12-20T08:28:38;99530.52;;;5.27;100.00
54924;BME280;40825;52.270;20.984;2023-12-20T08:31:03;99528.59;;;5.27;100.00
54924;BME280;40825;52.270;20.984;2023-12-20T08:33:29;99529.02;;;5.24;100.00
54924;BME280;40825;52.270;20.984;2023-12-20T08:35:55;99525.19;;;5.25;100.00
54924;BME280;40825;52.270;20.984;2023-12-20T08:38:20;99529.02;;;5.27;100.00
54924;BME280;40825;52.270;20.984;2023-12-20T08:40:46;99531.29;;;5.29;100.00
54924;BME280;40825;52.270;20.984;2023-12-20T08:43:12;99530.77;;;5.29;100.00
54924;BME280;40825;52.270;20.984;2023-12-20T08:45:40;99527.76;;;5.29;100.00
54924;BME280;40825;52.270;20.984;2023-12-20T08:48:06;99525.11;;;5.29;100.00
54924;BME280;40825;52.270;20.984;2023-12-20T08:50:32;99528.10;;;5.28;100.00
54924;BME280;40825;52.270;20.984;2023-12-20T08:52:58;99529.19;;;5.26;100.00
54924;BME280;40825;52.270;20.984;2023-12-20T08:55:23;99532.54;;;5.24;100.00
54924;BME280;40825;52.270;20.984;2023-12-20T08:57:49;99526.69;;;5.25;100.00
54924;BME280;40825;52.270;20.984;2023-12-20T09:00:16;99529.09;;;5.25;100.00
54924;BME280;40825;52.270;20.984;2023-12-20T09:02:41;99530.13;;;5.26;100.00
54924;BME280;40825;52.270;20.984;2023-12-20T09:05:07;99526.30;;;5.25;100.00
54924;BME280;40825;52.270;20.984;2023-12-20T09:07:33;99522.70;;;5.24;100.00
54924;BME280;40825;52.270;20.984;2023-12-20T09:09:58;99518.04;;;5.23;100.00
54924;BME280;40825;52.270;20.984;2023-12-20T09:12:25;99512.15;;;5.22;100.00
54924;BME280;40825;52.270;20.984;2023-12-20T09:14:51;99509.98;;;5.21;100.00
54924;BME280;40825;52.270;20.984;2023-12-20T09:17:18;99510.23;;;5.19;100.00
54924;BME280;40825;52.270;20.984;2023-12-20T09:19:44;99510.54;;;5.19;100.00
54924;BME280;40825;52.270;20.984;2023-12-20T09:22:10;99506.48;;;5.21;100.00
54924;BME280;40825;52.270;20.984;2023-12-20T09:24:37;99503.44;;;5.21;100.00
54924;BME280;40825;52.270;20.984;2023-12-20T09:27:04;99498.35;;;5.21;100.00
54924;BME280;40825;52.270;20.984;2023-12-20T09:29:33;99495.46;;;5.21;100.00
54924;BME280;40825;52.270;20.984;2023-12-20T09:31:59;99495.13;;;5.22;100.00
54924;BME280;40825;52.270;20.984;2023-12-20T09:34:30;99490.98;;;5.23;100.00
54924;BME280;40825;52.270;20.984;2023-12-20T09:36:56;99487.94;;;5.22;100.00
54924;BME280;40825;52.270;20.984;2023-12-20T09:39:21;99487.70;;;5.22;100.00
54924;BME280;40825;52.270;20.984;2023-12-20T09:42:00;99489.52;;;5.24;100.00
54924;BME280;40825;52.270;20.984;2023-12-20T09:44:35;99484.61;;;5.25;100.00
54924;BME280;40825;52.270;20.984;2023-12-20T09:47:05;99481.59;;;5.27;100.00
54924;BME280;40825;52.270;20.984;2023-12-20T09:49:30;99483.57;;;5.27;100.00
54924;BME280;40825;52.270;20.984;2023-12-20T09:51:57;99478.95;;;5.27;100.00
54924;BME280;40825;52.270;20.984;2023-12-20T09:54:23;99475.14;;;5.28;100.00
54924;BME280;40825;52.270;20.984;2023-12-20T09:56:49;99478.44;;;5.27;100.00
54924;BME280;40825;52.270;20.984;2023-12-20T09:59:16;99473.88;;;5.27;100.00
54924;BME280;40825;52.270;20.984;2023-12-20T10:01:42;99470.64;;;5.27;100.00
54924;BME280;40825;52.270;20.984;2023-12-20T10:04:09;99473.05;;;5.28;100.00
54924;BME280;40825;52.270;20.984;2023-12-20T10:06:39;99469.56;;;5.29;100.00
54924;BME280;40825;52.270;20.984;2023-12-20T10:09:05;99471.39;;;5.28;100.00
54924;BME280;40825;52.270;20.984;2023-12-20T10:11:31;99470.36;;;5.28;100.00
54924;BME280;40825;52.270;20.984;2023-12-20T10:14:00;99472.28;;;5.28;100.00
54924;BME280;40825;52.270;20.984;2023-12-20T10:16:29;99474.98;;;5.28;100.00
54924;BME280;40825;52.270;20.984;2023-12-20T10:18:55;99470.63;;;5.29;100.00
54924;BME280;40825;52.270;20.984;2023-12-20T10:21:25;99468.47;;;5.29;100.00
54924;BME280;40825;52.270;20.984;2023-12-20T10:23:57;99465.16;;;5.29;100.00
54924;BME280;40825;52.270;20.984;2023-12-20T10:26:25;99457.61;;;5.30;100.00
54924;BME280;40825;52.270;20.984;2023-12-20T10:28:53;99457.18;;;5.29;100.00
54924;BME280;40825;52.270;20.984;2023-12-20T10:31:29;99456.45;;;5.28;100.00
54924;BME280;40825;52.270;20.984;2023-12-20T10:33:57;99448.91;;;5.28;100.00
54924;BME280;40825;52.270;20.984;2023-12-20T10:36:24;99442.89;;;5.26;100.00
54924;BME280;40825;52.270;20.984;2023-12-20T10:38:53;99446.27;;;5.26;100.00
54924;BME280;40825;52.270;20.984;2023-12-20T10:41:33;99446.09;;;5.28;100.00
54924;BME280;40825;52.270;20.984;2023-12-20T10:44:04;99437.98;;;5.27;100.00
54924;BME280;40825;52.270;20.984;2023-12-20T10:46:33;99439.60;;;5.29;100.00
54924;BME280;40825;52.270;20.984;2023-12-20T10:49:02;99447.98;;;5.28;100.00
54924;BME280;40825;52.270;20.984;2023-12-20T10:51:28;99452.14;;;5.29;100.00
54924;BME280;40825;52.270;20.984;2023-12-20T10:54:00;99453.65;;;5.29;100.00
54924;BME280;40825;52.270;20.984;2023-12-20T10:56:30;99450.73;;;5.30;100.00
54924;BME280;40825;52.270;20.984;2023-12-20T10:58:58;99448.77;;;5.30;100.00
54924;BME280;40825;52.270;20.984;2023-12-20T11:01:28;99445.48;;;5.30;100.00
54924;BME280;40825;52.270;20.984;2023-12-20T11:03:55;99438.77;;;5.30;100.00
54924;BME280;40825;52.270;20.984;2023-12-20T11:06:37;99429.55;;;5.32;100.00
54924;BME280;40825;52.270;20.984;2023-12-20T11:09:25;99427.48;;;5.33;100.00
54924;BME280;40825;52.270;20.984;2023-12-20T11:14:23;99418.46;;;5.34;100.00
54924;BME280;40825;52.270;20.984;2023-12-20T11:17:07;99415.94;;;5.36;100.00
54924;BME280;40825;52.270;20.984;2023-12-20T11:19:36;99415.20;;;5.36;100.00
54924;BME280;40825;52.270;20.984;2023-12-20T11:22:03;99409.63;;;5.36;100.00
54924;BME280;40825;52.270;20.984;2023-12-20T11:24:31;99395.90;;;5.36;100.00
54924;BME280;40825;52.270;20.984;2023-12-20T11:27:00;99391.92;;;5.38;100.00
54924;BME280;40825;52.270;20.984;2023-12-20T11:29:36;99393.48;;;5.38;100.00
54924;BME280;40825;52.270;20.984;2023-12-20T11:37:21;99388.95;;;5.39;100.00
54924;BME280;40825;52.270;20.984;2023-12-20T11:40:00;99391.80;;;5.39;100.00
54924;BME280;40825;52.270;20.984;2023-12-20T11:42:26;99393.52;;;5.41;100.00
54924;BME280;40825;52.270;20.984;2023-12-20T11:44:52;99387.60;;;5.43;100.00
54924;BME280;40825;52.270;20.984;2023-12-20T11:47:23;99380.42;;;5.43;100.00
54924;BME280;40825;52.270;20.984;2023-12-20T11:49:48;99378.65;;;5.40;100.00
54924;BME280;40825;52.270;20.984;2023-12-20T11:52:14;99372.73;;;5.39;100.00
54924;BME280;40825;52.270;20.984;2023-12-20T11:54:39;99373.13;;;5.39;100.00
54924;BME280;40825;52.270;20.984;2023-12-20T11:57:12;99369.48;;;5.37;100.00
54924;BME280;40825;52.270;20.984;2023-12-20T11:59:38;99364.95;;;5.33;100.00
54924;BME280;40825;52.270;20.984;2023-12-20T12:02:03;99361.11;;;5.32;100.00
54924;BME280;40825;52.270;20.984;2023-12-20T12:04:29;99359.64;;;5.29;100.00
54924;BME280;40825;52.270;20.984;2023-12-20T12:06:54;99356.63;;;5.28;100.00
54924;BME280;40825;52.270;20.984;2023-12-20T12:09:20;99352.17;;;5.28;100.00
54924;BME280;40825;52.270;20.984;2023-12-20T12:11:46;99357.54;;;5.27;100.00
54924;BME280;40825;52.270;20.984;2023-12-20T12:14:12;99358.90;;;5.28;100.00
54924;BME280;40825;52.270;20.984;2023-12-20T12:16:37;99357.34;;;5.27;100.00
54924;BME280;40825;52.270;20.984;2023-12-20T12:19:03;99352.80;;;5.26;100.00
54924;BME280;40825;52.270;20.984;2023-12-20T12:21:29;99348.02;;;5.24;100.00
54924;BME280;40825;52.270;20.984;2023-12-20T12:24:09;99351.04;;;5.24;100.00
54924;BME280;40825;52.270;20.984;2023-12-20T12:26:34;99347.16;;;5.22;100.00
54924;BME280;40825;52.270;20.984;2023-12-20T12:29:00;99344.53;;;5.22;100.00
54924;BME280;40825;52.270;20.984;2023-12-20T12:31:26;99347.34;;;5.22;100.00
54924;BME280;40825;52.270;20.984;2023-12-20T12:33:52;99348.68;;;5.21;100.00
54924;BME280;40825;52.270;20.984;2023-12-20T12:36:18;99342.39;;;5.18;100.00
54924;BME280;40825;52.270;20.984;2023-12-20T12:38:43;99336.93;;;5.15;100.00
54924;BME280;40825;52.270;20.984;2023-12-20T12:41:10;99335.64;;;5.13;100.00
54924;BME280;40825;52.270;20.984;2023-12-20T12:43:37;99336.38;;;5.09;100.00
54924;BME280;40825;52.270;20.984;2023-12-20T12:46:03;99335.97;;;5.06;100.00
54924;BME280;40825;52.270;20.984;2023-12-20T12:48:31;99335.66;;;5.05;100.00
54924;BME280;40825;52.270;20.984;2023-12-20T12:50:58;99336.51;;;5.05;100.00
54924;BME280;40825;52.270;20.984;2023-12-20T12:53:26;99341.48;;;5.06;100.00
54924;BME280;40825;52.270;20.984;2023-12-20T12:55:55;99343.44;;;5.05;100.00